sensor_id;sensor_type;location;lat;lon;timestamp;temperature;humidity
13458;DHT22;6801;53.018;11.560;2022-12-05T00:01:25;3.20;84.00
13458;DHT22;6801;53.018;11.560;2022-12-05T00:03:54;3.20;84.00
13458;DHT22;6801;53.018;11.560;2022-12-05T00:06:22;3.20;83.90
13458;DHT22;6801;53.018;11.560;2022-12-05T00:08:50;3.20;83.90
13458;DHT22;6801;53.018;11.560;2022-12-05T00:11:19;3.20;83.90
13458;DHT22;6801;53.018;11.560;2022-12-05T00:13:47;3.30;83.90
13458;DHT22;6801;53.018;11.560;2022-12-05T00:16:18;3.30;83.90
13458;DHT22;6801;53.018;11.560;2022-12-05T00:18:47;3.30;84.00
13458;DHT22;6801;53.018;11.560;2022-12-05T00:21:16;3.30;84.10
13458;DHT22;6801;53.018;11.560;2022-12-05T00:23:43;3.30;84.10
13458;DHT22;6801;53.018;11.560;2022-12-05T00:26:11;3.30;84.10
13458;DHT22;6801;53.018;11.560;2022-12-05T00:28:39;3.30;84.10
13458;DHT22;6801;53.018;11.560;2022-12-05T00:31:08;3.30;84.10
13458;DHT22;6801;53.018;11.560;2022-12-05T00:33:36;3.30;84.20
13458;DHT22;6801;53.018;11.560;2022-12-05T00:36:06;3.30;84.20
13458;DHT22;6801;53.018;11.560;2022-12-05T00:38:33;3.30;84.10
13458;DHT22;6801;53.018;11.560;2022-12-05T00:41:02;3.20;84.10
13458;DHT22;6801;53.018;11.560;2022-12-05T00:43:29;3.30;84.00
13458;DHT22;6801;53.018;11.560;2022-12-05T00:46:00;3.30;84.00
13458;DHT22;6801;53.018;11.560;2022-12-05T00:48:27;3.30;84.10
13458;DHT22;6801;53.018;11.560;2022-12-05T00:50:59;3.30;84.10
13458;DHT22;6801;53.018;11.560;2022-12-05T00:53:28;3.30;84.10
13458;DHT22;6801;53.018;11.560;2022-12-05T00:55:55;3.30;84.20
13458;DHT22;6801;53.018;11.560;2022-12-05T00:58:22;3.40;84.30
13458;DHT22;6801;53.018;11.560;2022-12-05T01:00:49;3.40;84.10
13458;DHT22;6801;53.018;11.560;2022-12-05T01:03:16;3.30;84.20
13458;DHT22;6801;53.018;11.560;2022-12-05T01:05:43;3.30;84.30
13458;DHT22;6801;53.018;11.560;2022-12-05T01:08:10;3.30;84.20
13458;DHT22;6801;53.018;11.560;2022-12-05T01:10:38;3.30;84.20
13458;DHT22;6801;53.018;11.560;2022-12-05T01:13:06;3.30;84.30
13458;DHT22;6801;53.018;11.560;2022-12-05T01:15:35;3.40;84.10
13458;DHT22;6801;53.018;11.560;2022-12-05T01:18:02;3.40;83.90
13458;DHT22;6801;53.018;11.560;2022-12-05T01:20:29;3.40;83.90
13458;DHT22;6801;53.018;11.560;2022-12-05T01:22:56;3.40;84.10
13458;DHT22;6801;53.018;11.560;2022-12-05T01:25:23;3.40;84.00
13458;DHT22;6801;53.018;11.560;2022-12-05T01:27:52;3.50;83.80
13458;DHT22;6801;53.018;11.560;2022-12-05T01:30:19;3.50;83.60
13458;DHT22;6801;53.018;11.560;2022-12-05T01:32:46;3.40;83.80
13458;DHT22;6801;53.018;11.560;2022-12-05T01:35:13;3.40;83.80
13458;DHT22;6801;53.018;11.560;2022-12-05T01:37:40;3.40;84.00
13458;DHT22;6801;53.018;11.560;2022-12-05T01:40:08;3.40;84.00
13458;DHT22;6801;53.018;11.560;2022-12-05T01:42:35;3.40;84.00
13458;DHT22;6801;53.018;11.560;2022-12-05T01:45:11;3.50;83.90
13458;DHT22;6801;53.018;11.560;2022-12-05T01:47:39;3.40;84.00
13458;DHT22;6801;53.018;11.560;2022-12-05T01:50:07;3.40;83.90
13458;DHT22;6801;53.018;11.560;2022-12-05T01:52:35;3.40;83.90
13458;DHT22;6801;53.018;11.560;2022-12-05T01:55:06;3.40;83.90
13458;DHT22;6801;53.018;11.560;2022-12-05T01:57:34;3.40;83.80
13458;DHT22;6801;53.018;11.560;2022-12-05T02:00:11;3.40;83.90
13458;DHT22;6801;53.018;11.560;2022-12-05T02:02:40;3.30;84.00
13458;DHT22;6801;53.018;11.560;2022-12-05T02:05:12;3.30;84.10
13458;DHT22;6801;53.018;11.560;2022-12-05T02:07:41;3.40;84.00
13458;DHT22;6801;53.018;11.560;2022-12-05T02:10:09;3.30;84.00
13458;DHT22;6801;53.018;11.560;2022-12-05T02:12:37;3.30;84.10
13458;DHT22;6801;53.018;11.560;2022-12-05T02:15:20;3.30;84.20
13458;DHT22;6801;53.018;11.560;2022-12-05T02:17:53;3.30;84.20
13458;DHT22;6801;53.018;11.560;2022-12-05T02:20:33;3.30;84.20
13458;DHT22;6801;53.018;11.560;2022-12-05T02:26:47;3.30;84.20
13458;DHT22;6801;53.018;11.560;2022-12-05T02:32:21;3.30;84.10
13458;DHT22;6801;53.018;11.560;2022-12-05T02:34:56;3.30;84.10
13458;DHT22;6801;53.018;11.560;2022-12-05T02:37:28;3.40;84.00
13458;DHT22;6801;53.018;11.560;2022-12-05T02:40:02;3.30;84.10
13458;DHT22;6801;53.018;11.560;2022-12-05T02:42:37;3.40;84.10
13458;DHT22;6801;53.018;11.560;2022-12-05T02:45:08;3.40;84.10
13458;DHT22;6801;53.018;11.560;2022-12-05T02:47:48;3.40;84.20
13458;DHT22;6801;53.018;11.560;2022-12-05T02:50:19;3.30;84.40
13458;DHT22;6801;53.018;11.560;2022-12-05T02:52:48;3.30;84.20
13458;DHT22;6801;53.018;11.560;2022-12-05T02:55:17;3.30;84.30
13458;DHT22;6801;53.018;11.560;2022-12-05T02:57:51;3.30;84.30
13458;DHT22;6801;53.018;11.560;2022-12-05T03:00:19;3.30;84.30
13458;DHT22;6801;53.018;11.560;2022-12-05T03:02:51;3.30;84.30
13458;DHT22;6801;53.018;11.560;2022-12-05T03:05:34;3.40;84.20
13458;DHT22;6801;53.018;11.560;2022-12-05T03:08:05;3.30;84.20
13458;DHT22;6801;53.018;11.560;2022-12-05T03:10:35;3.30;84.30
13458;DHT22;6801;53.018;11.560;2022-12-05T03:13:07;3.30;84.40
13458;DHT22;6801;53.018;11.560;2022-12-05T03:15:38;3.30;84.30
13458;DHT22;6801;53.018;11.560;2022-12-05T03:18:10;3.30;84.30
13458;DHT22;6801;53.018;11.560;2022-12-05T03:20:44;3.30;84.30
13458;DHT22;6801;53.018;11.560;2022-12-05T03:23:15;3.30;84.40
13458;DHT22;6801;53.018;11.560;2022-12-05T03:25:50;3.30;84.40
13458;DHT22;6801;53.018;11.560;2022-12-05T03:28:22;3.30;84.40
13458;DHT22;6801;53.018;11.560;2022-12-05T03:30:52;3.30;84.40
13458;DHT22;6801;53.018;11.560;2022-12-05T03:33:25;3.30;84.40
13458;DHT22;6801;53.018;11.560;2022-12-05T03:35:58;3.30;84.40
13458;DHT22;6801;53.018;11.560;2022-12-05T03:38:32;3.30;84.40
13458;DHT22;6801;53.018;11.560;2022-12-05T03:41:04;3.30;84.50
13458;DHT22;6801;53.018;11.560;2022-12-05T03:43:38;3.30;84.50
13458;DHT22;6801;53.018;11.560;2022-12-05T03:46:13;3.40;84.30
13458;DHT22;6801;53.018;11.560;2022-12-05T03:48:49;3.50;84.10
13458;DHT22;6801;53.018;11.560;2022-12-05T03:51:23;3.50;84.00
13458;DHT22;6801;53.018;11.560;2022-12-05T03:53:56;3.40;84.20
13458;DHT22;6801;53.018;11.560;2022-12-05T03:56:26;3.40;84.50
13458;DHT22;6801;53.018;11.560;2022-12-05T03:58:59;3.40;84.30
13458;DHT22;6801;53.018;11.560;2022-12-05T04:01:28;3.30;84.50
13458;DHT22;6801;53.018;11.560;2022-12-05T04:04:04;3.40;84.10
13458;DHT22;6801;53.018;11.560;2022-12-05T04:06:37;3.30;84.30
13458;DHT22;6801;53.018;11.560;2022-12-05T04:09:06;3.30;84.50
13458;DHT22;6801;53.018;11.560;2022-12-05T04:11:36;3.30;84.50
13458;DHT22;6801;53.018;11.560;2022-12-05T04:14:07;3.30;84.40
13458;DHT22;6801;53.018;11.560;2022-12-05T04:16:39;3.40;84.40
13458;DHT22;6801;53.018;11.560;2022-12-05T04:19:29;3.40;84.30
13458;DHT22;6801;53.018;11.560;2022-12-05T04:22:18;3.40;84.50
13458;DHT22;6801;53.018;11.560;2022-12-05T04:24:45;3.40;84.50
13458;DHT22;6801;53.018;11.560;2022-12-05T04:27:35;3.40;84.60
13458;DHT22;6801;53.018;11.560;2022-12-05T04:30:06;3.40;84.60
13458;DHT22;6801;53.018;11.560;2022-12-05T04:32:37;3.40;84.60
13458;DHT22;6801;53.018;11.560;2022-12-05T04:35:12;3.40;84.50
13458;DHT22;6801;53.018;11.560;2022-12-05T04:37:42;3.30;84.70
13458;DHT22;6801;53.018;11.560;2022-12-05T04:40:13;3.40;84.60
13458;DHT22;6801;53.018;11.560;2022-12-05T04:42:42;3.30;84.60
13458;DHT22;6801;53.018;11.560;2022-12-05T04:45:13;3.30;84.70
13458;DHT22;6801;53.018;11.560;2022-12-05T04:47:45;3.30;84.70
13458;DHT22;6801;53.018;11.560;2022-12-05T04:50:15;3.40;84.40
13458;DHT22;6801;53.018;11.560;2022-12-05T04:52:47;3.30;84.50
13458;DHT22;6801;53.018;11.560;2022-12-05T04:55:17;3.30;84.60
13458;DHT22;6801;53.018;11.560;2022-12-05T04:57:56;3.40;84.40
13458;DHT22;6801;53.018;11.560;2022-12-05T05:00:26;3.40;84.50
13458;DHT22;6801;53.018;11.560;2022-12-05T05:02:59;3.30;84.60
13458;DHT22;6801;53.018;11.560;2022-12-05T05:05:32;3.30;84.70
13458;DHT22;6801;53.018;11.560;2022-12-05T05:08:00;3.30;84.80
13458;DHT22;6801;53.018;11.560;2022-12-05T05:10:32;3.30;84.80
13458;DHT22;6801;53.018;11.560;2022-12-05T05:13:01;3.20;84.80
13458;DHT22;6801;53.018;11.560;2022-12-05T05:15:28;3.30;84.90
13458;DHT22;6801;53.018;11.560;2022-12-05T05:17:55;3.30;84.80
13458;DHT22;6801;53.018;11.560;2022-12-05T05:20:22;3.30;84.90
13458;DHT22;6801;53.018;11.560;2022-12-05T05:22:54;3.30;84.80
13458;DHT22;6801;53.018;11.560;2022-12-05T05:25:21;3.30;84.80
13458;DHT22;6801;53.018;11.560;2022-12-05T05:27:49;3.20;84.80
13458;DHT22;6801;53.018;11.560;2022-12-05T05:30:17;3.30;84.90
13458;DHT22;6801;53.018;11.560;2022-12-05T05:32:45;3.30;84.80
13458;DHT22;6801;53.018;11.560;2022-12-05T05:35:13;3.30;84.80
13458;DHT22;6801;53.018;11.560;2022-12-05T05:37:41;3.30;84.80
13458;DHT22;6801;53.018;11.560;2022-12-05T05:40:11;3.30;84.80
13458;DHT22;6801;53.018;11.560;2022-12-05T05:42:42;3.30;84.80
13458;DHT22;6801;53.018;11.560;2022-12-05T05:45:10;3.30;84.80
13458;DHT22;6801;53.018;11.560;2022-12-05T05:47:37;3.30;84.80
13458;DHT22;6801;53.018;11.560;2022-12-05T05:50:06;3.30;84.80
13458;DHT22;6801;53.018;11.560;2022-12-05T05:52:34;3.30;84.80
13458;DHT22;6801;53.018;11.560;2022-12-05T05:55:01;3.30;84.90
13458;DHT22;6801;53.018;11.560;2022-12-05T05:57:31;3.30;84.80
13458;DHT22;6801;53.018;11.560;2022-12-05T05:59:58;3.30;84.70
13458;DHT22;6801;53.018;11.560;2022-12-05T06:02:25;3.30;84.70
13458;DHT22;6801;53.018;11.560;2022-12-05T06:04:56;3.30;84.70
13458;DHT22;6801;53.018;11.560;2022-12-05T06:07:23;3.20;84.80
13458;DHT22;6801;53.018;11.560;2022-12-05T06:09:50;3.20;84.80
13458;DHT22;6801;53.018;11.560;2022-12-05T06:12:17;3.20;84.80
13458;DHT22;6801;53.018;11.560;2022-12-05T06:14:47;3.30;84.70
13458;DHT22;6801;53.018;11.560;2022-12-05T06:17:15;3.30;84.70
13458;DHT22;6801;53.018;11.560;2022-12-05T06:19:42;3.30;84.80
13458;DHT22;6801;53.018;11.560;2022-12-05T06:22:09;3.30;84.80
13458;DHT22;6801;53.018;11.560;2022-12-05T06:24:36;3.30;84.80
13458;DHT22;6801;53.018;11.560;2022-12-05T06:27:03;3.30;84.80
13458;DHT22;6801;53.018;11.560;2022-12-05T06:29:30;3.30;84.80
13458;DHT22;6801;53.018;11.560;2022-12-05T06:31:59;3.30;84.80
13458;DHT22;6801;53.018;11.560;2022-12-05T06:34:26;3.30;84.80
13458;DHT22;6801;53.018;11.560;2022-12-05T06:36:53;3.30;84.80
13458;DHT22;6801;53.018;11.560;2022-12-05T06:39:20;3.30;84.80
13458;DHT22;6801;53.018;11.560;2022-12-05T06:41:47;3.20;84.80
13458;DHT22;6801;53.018;11.560;2022-12-05T06:44:14;3.20;84.90
13458;DHT22;6801;53.018;11.560;2022-12-05T06:46:41;3.30;84.90
13458;DHT22;6801;53.018;11.560;2022-12-05T06:49:10;3.20;84.90
13458;DHT22;6801;53.018;11.560;2022-12-05T06:51:37;3.20;85.00
13458;DHT22;6801;53.018;11.560;2022-12-05T06:54:04;3.30;84.90
13458;DHT22;6801;53.018;11.560;2022-12-05T06:56:31;3.30;84.80
13458;DHT22;6801;53.018;11.560;2022-12-05T06:58:58;3.30;84.90
13458;DHT22;6801;53.018;11.560;2022-12-05T07:01:25;3.40;85.00
13458;DHT22;6801;53.018;11.560;2022-12-05T07:04:06;3.30;84.80
13458;DHT22;6801;53.018;11.560;2022-12-05T07:06:35;3.30;84.90
13458;DHT22;6801;53.018;11.560;2022-12-05T07:09:03;3.30;84.90
13458;DHT22;6801;53.018;11.560;2022-12-05T07:11:31;3.30;85.00
13458;DHT22;6801;53.018;11.560;2022-12-05T07:13:58;3.30;84.90
13458;DHT22;6801;53.018;11.560;2022-12-05T07:16:25;3.20;85.00
13458;DHT22;6801;53.018;11.560;2022-12-05T07:18:52;3.30;84.90
13458;DHT22;6801;53.018;11.560;2022-12-05T07:21:19;3.20;85.00
13458;DHT22;6801;53.018;11.560;2022-12-05T07:23:49;3.20;84.90
13458;DHT22;6801;53.018;11.560;2022-12-05T07:26:18;3.20;85.00
13458;DHT22;6801;53.018;11.560;2022-12-05T07:28:46;3.20;85.00
13458;DHT22;6801;53.018;11.560;2022-12-05T07:31:15;3.20;84.90
13458;DHT22;6801;53.018;11.560;2022-12-05T07:33:42;3.10;84.90
13458;DHT22;6801;53.018;11.560;2022-12-05T07:36:11;3.20;84.90
13458;DHT22;6801;53.018;11.560;2022-12-05T07:38:39;3.10;84.90
13458;DHT22;6801;53.018;11.560;2022-12-05T07:41:09;3.10;84.90
13458;DHT22;6801;53.018;11.560;2022-12-05T07:43:36;3.10;84.80
13458;DHT22;6801;53.018;11.560;2022-12-05T07:46:05;3.10;84.90
13458;DHT22;6801;53.018;11.560;2022-12-05T07:48:33;3.10;84.80
13458;DHT22;6801;53.018;11.560;2022-12-05T07:51:00;3.10;84.80
13458;DHT22;6801;53.018;11.560;2022-12-05T07:53:28;3.10;84.80
13458;DHT22;6801;53.018;11.560;2022-12-05T07:55:58;3.10;84.80
13458;DHT22;6801;53.018;11.560;2022-12-05T07:58:27;3.10;84.70
13458;DHT22;6801;53.018;11.560;2022-12-05T08:00:54;3.10;84.70
13458;DHT22;6801;53.018;11.560;2022-12-05T08:03:22;3.10;84.70
13458;DHT22;6801;53.018;11.560;2022-12-05T08:05:49;3.10;84.70
13458;DHT22;6801;53.018;11.560;2022-12-05T08:08:16;3.10;84.70
13458;DHT22;6801;53.018;11.560;2022-12-05T08:10:43;3.00;84.70
13458;DHT22;6801;53.018;11.560;2022-12-05T08:13:10;3.10;84.70
13458;DHT22;6801;53.018;11.560;2022-12-05T08:15:39;3.00;84.70
13458;DHT22;6801;53.018;11.560;2022-12-05T08:18:06;3.10;84.80
13458;DHT22;6801;53.018;11.560;2022-12-05T08:20:33;3.10;84.80
13458;DHT22;6801;53.018;11.560;2022-12-05T08:23:00;3.10;84.70
13458;DHT22;6801;53.018;11.560;2022-12-05T08:25:27;3.10;84.70
13458;DHT22;6801;53.018;11.560;2022-12-05T08:27:55;3.10;84.70
13458;DHT22;6801;53.018;11.560;2022-12-05T08:30:22;3.10;84.70
13458;DHT22;6801;53.018;11.560;2022-12-05T08:32:50;3.10;84.70
13458;DHT22;6801;53.018;11.560;2022-12-05T08:35:17;3.10;84.70
13458;DHT22;6801;53.018;11.560;2022-12-05T08:37:44;3.10;84.70
13458;DHT22;6801;53.018;11.560;2022-12-05T08:40:11;3.10;84.70
13458;DHT22;6801;53.018;11.560;2022-12-05T08:42:38;3.10;84.70
13458;DHT22;6801;53.018;11.560;2022-12-05T08:45:06;3.10;84.70
13458;DHT22;6801;53.018;11.560;2022-12-05T08:47:34;3.10;84.70
13458;DHT22;6801;53.018;11.560;2022-12-05T08:50:03;3.10;84.70
13458;DHT22;6801;53.018;11.560;2022-12-05T08:52:30;3.10;84.70
13458;DHT22;6801;53.018;11.560;2022-12-05T08:54:57;3.10;84.70
13458;DHT22;6801;53.018;11.560;2022-12-05T08:57:24;3.10;84.80
13458;DHT22;6801;53.018;11.560;2022-12-05T08:59:52;3.10;84.80
13458;DHT22;6801;53.018;11.560;2022-12-05T09:02:19;3.10;84.80
13458;DHT22;6801;53.018;11.560;2022-12-05T09:04:49;3.10;84.80
13458;DHT22;6801;53.018;11.560;2022-12-05T09:07:18;3.10;84.80
13458;DHT22;6801;53.018;11.560;2022-12-05T09:09:45;3.10;84.70
13458;DHT22;6801;53.018;11.560;2022-12-05T09:12:12;3.10;84.70
13458;DHT22;6801;53.018;11.560;2022-12-05T09:14:39;3.10;84.70
13458;DHT22;6801;53.018;11.560;2022-12-05T09:17:06;3.10;84.70
13458;DHT22;6801;53.018;11.560;2022-12-05T09:19:33;3.10;84.80
13458;DHT22;6801;53.018;11.560;2022-12-05T09:22:00;3.10;84.70
13458;DHT22;6801;53.018;11.560;2022-12-05T09:24:28;3.10;84.70
13458;DHT22;6801;53.018;11.560;2022-12-05T09:26:55;3.10;84.70
13458;DHT22;6801;53.018;11.560;2022-12-05T09:29:22;3.10;84.70
13458;DHT22;6801;53.018;11.560;2022-12-05T09:31:50;3.10;84.60
13458;DHT22;6801;53.018;11.560;2022-12-05T09:34:18;3.10;84.60
13458;DHT22;6801;53.018;11.560;2022-12-05T09:36:45;3.20;84.60
13458;DHT22;6801;53.018;11.560;2022-12-05T09:39:17;3.20;84.60
13458;DHT22;6801;53.018;11.560;2022-12-05T09:42:28;3.20;84.60
13458;DHT22;6801;53.018;11.560;2022-12-05T09:45:12;3.10;84.60
13458;DHT22;6801;53.018;11.560;2022-12-05T09:47:47;3.20;84.50
13458;DHT22;6801;53.018;11.560;2022-12-05T09:50:19;3.20;84.50
13458;DHT22;6801;53.018;11.560;2022-12-05T09:53:06;3.20;84.50
13458;DHT22;6801;53.018;11.560;2022-12-05T09:55:44;3.20;84.50
13458;DHT22;6801;53.018;11.560;2022-12-05T09:58:24;3.20;84.60
13458;DHT22;6801;53.018;11.560;2022-12-05T10:00:58;3.20;84.50
13458;DHT22;6801;53.018;11.560;2022-12-05T10:03:30;3.20;84.60
13458;DHT22;6801;53.018;11.560;2022-12-05T10:06:08;3.20;84.60
13458;DHT22;6801;53.018;11.560;2022-12-05T10:08:54;3.20;84.60
13458;DHT22;6801;53.018;11.560;2022-12-05T10:11:28;3.20;84.60
13458;DHT22;6801;53.018;11.560;2022-12-05T10:14:05;3.20;84.60
13458;DHT22;6801;53.018;11.560;2022-12-05T10:16:38;3.20;84.50
13458;DHT22;6801;53.018;11.560;2022-12-05T10:19:12;3.10;84.50
13458;DHT22;6801;53.018;11.560;2022-12-05T10:21:46;3.10;84.50
13458;DHT22;6801;53.018;11.560;2022-12-05T10:24:22;3.10;84.50
13458;DHT22;6801;53.018;11.560;2022-12-05T10:26:55;3.10;84.40
13458;DHT22;6801;53.018;11.560;2022-12-05T10:29:27;3.10;84.40
13458;DHT22;6801;53.018;11.560;2022-12-05T10:32:02;3.10;84.40
13458;DHT22;6801;53.018;11.560;2022-12-05T10:34:33;3.10;84.40
13458;DHT22;6801;53.018;11.560;2022-12-05T10:37:09;3.10;84.40
13458;DHT22;6801;53.018;11.560;2022-12-05T10:39:37;3.10;84.40
13458;DHT22;6801;53.018;11.560;2022-12-05T10:42:05;3.10;84.40
13458;DHT22;6801;53.018;11.560;2022-12-05T10:44:34;3.10;84.40
13458;DHT22;6801;53.018;11.560;2022-12-05T10:47:01;3.10;84.40
13458;DHT22;6801;53.018;11.560;2022-12-05T10:49:29;3.10;84.40
13458;DHT22;6801;53.018;11.560;2022-12-05T10:51:57;3.10;84.40
13458;DHT22;6801;53.018;11.560;2022-12-05T10:54:29;3.10;84.40
13458;DHT22;6801;53.018;11.560;2022-12-05T10:56:57;3.10;84.40
13458;DHT22;6801;53.018;11.560;2022-12-05T10:59:38;3.10;84.40
13458;DHT22;6801;53.018;11.560;2022-12-05T11:02:20;3.10;84.50
13458;DHT22;6801;53.018;11.560;2022-12-05T11:04:47;3.10;84.40
13458;DHT22;6801;53.018;11.560;2022-12-05T11:07:25;3.10;84.40
13458;DHT22;6801;53.018;11.560;2022-12-05T11:09:53;3.20;84.40
13458;DHT22;6801;53.018;11.560;2022-12-05T11:12:21;3.20;84.50
13458;DHT22;6801;53.018;11.560;2022-12-05T11:15:00;3.20;84.50
13458;DHT22;6801;53.018;11.560;2022-12-05T11:17:33;3.20;84.50
13458;DHT22;6801;53.018;11.560;2022-12-05T11:20:01;3.20;84.50
13458;DHT22;6801;53.018;11.560;2022-12-05T11:22:33;3.30;84.50
13458;DHT22;6801;53.018;11.560;2022-12-05T11:25:22;3.30;84.50
13458;DHT22;6801;53.018;11.560;2022-12-05T11:27:50;3.30;84.50
13458;DHT22;6801;53.018;11.560;2022-12-05T11:30:19;3.30;84.50
13458;DHT22;6801;53.018;11.560;2022-12-05T11:32:47;3.30;84.60
13458;DHT22;6801;53.018;11.560;2022-12-05T11:35:23;3.30;84.60
13458;DHT22;6801;53.018;11.560;2022-12-05T11:37:55;3.30;84.60
13458;DHT22;6801;53.018;11.560;2022-12-05T11:40:29;3.30;84.60
13458;DHT22;6801;53.018;11.560;2022-12-05T11:43:24;3.30;84.70
13458;DHT22;6801;53.018;11.560;2022-12-05T11:46:02;3.30;84.60
13458;DHT22;6801;53.018;11.560;2022-12-05T11:48:44;3.40;84.60
13458;DHT22;6801;53.018;11.560;2022-12-05T11:51:31;3.40;84.60
13458;DHT22;6801;53.018;11.560;2022-12-05T11:54:37;3.40;84.70
13458;DHT22;6801;53.018;11.560;2022-12-05T11:57:14;3.40;84.70
13458;DHT22;6801;53.018;11.560;2022-12-05T12:00:05;3.40;84.70
13458;DHT22;6801;53.018;11.560;2022-12-05T12:02:56;3.40;84.60
13458;DHT22;6801;53.018;11.560;2022-12-05T12:05:37;3.40;84.60
13458;DHT22;6801;53.018;11.560;2022-12-05T12:08:12;3.40;84.70
13458;DHT22;6801;53.018;11.560;2022-12-05T12:10:47;3.40;84.70
13458;DHT22;6801;53.018;11.560;2022-12-05T12:13:29;3.40;84.80
13458;DHT22;6801;53.018;11.560;2022-12-05T12:16:08;3.40;84.80
13458;DHT22;6801;53.018;11.560;2022-12-05T12:21:43;3.40;84.80
13458;DHT22;6801;53.018;11.560;2022-12-05T12:24:21;3.40;84.80
13458;DHT22;6801;53.018;11.560;2022-12-05T12:26:58;3.40;84.70
13458;DHT22;6801;53.018;11.560;2022-12-05T12:29:38;3.50;84.80
13458;DHT22;6801;53.018;11.560;2022-12-05T12:32:17;3.50;84.80
13458;DHT22;6801;53.018;11.560;2022-12-05T12:35:12;3.50;84.80
13458;DHT22;6801;53.018;11.560;2022-12-05T12:37:52;3.40;84.80
13458;DHT22;6801;53.018;11.560;2022-12-05T12:40:29;3.50;84.80
13458;DHT22;6801;53.018;11.560;2022-12-05T12:43:06;3.50;84.90
13458;DHT22;6801;53.018;11.560;2022-12-05T12:45:54;3.50;84.90
13458;DHT22;6801;53.018;11.560;2022-12-05T12:48:34;3.50;84.90
13458;DHT22;6801;53.018;11.560;2022-12-05T12:51:04;3.50;84.90
13458;DHT22;6801;53.018;11.560;2022-12-05T12:56:33;3.50;84.90
13458;DHT22;6801;53.018;11.560;2022-12-05T12:59:14;3.50;85.00
13458;DHT22;6801;53.018;11.560;2022-12-05T13:01:47;3.50;85.00
13458;DHT22;6801;53.018;11.560;2022-12-05T13:04:22;3.50;85.00
13458;DHT22;6801;53.018;11.560;2022-12-05T13:06:52;3.50;85.00
13458;DHT22;6801;53.018;11.560;2022-12-05T13:09:27;3.50;85.00
13458;DHT22;6801;53.018;11.560;2022-12-05T13:11:59;3.50;85.10
13458;DHT22;6801;53.018;11.560;2022-12-05T13:14:28;3.50;85.10
13458;DHT22;6801;53.018;11.560;2022-12-05T13:16:57;3.50;85.10
13458;DHT22;6801;53.018;11.560;2022-12-05T13:19:28;3.50;85.10
13458;DHT22;6801;53.018;11.560;2022-12-05T13:22:04;3.50;85.10
13458;DHT22;6801;53.018;11.560;2022-12-05T13:24:33;3.50;85.10
13458;DHT22;6801;53.018;11.560;2022-12-05T13:27:04;3.50;85.00
13458;DHT22;6801;53.018;11.560;2022-12-05T13:29:31;3.60;85.00
13458;DHT22;6801;53.018;11.560;2022-12-05T13:32:00;3.50;85.00
13458;DHT22;6801;53.018;11.560;2022-12-05T13:34:44;3.50;84.80
13458;DHT22;6801;53.018;11.560;2022-12-05T13:37:18;3.50;84.80
13458;DHT22;6801;53.018;11.560;2022-12-05T13:40:24;3.50;84.90
13458;DHT22;6801;53.018;11.560;2022-12-05T13:43:10;3.50;84.90
13458;DHT22;6801;53.018;11.560;2022-12-05T13:45:38;3.50;84.90
13458;DHT22;6801;53.018;11.560;2022-12-05T13:48:13;3.50;84.90
13458;DHT22;6801;53.018;11.560;2022-12-05T13:50:50;3.60;85.00
13458;DHT22;6801;53.018;11.560;2022-12-05T13:53:34;3.50;85.00
13458;DHT22;6801;53.018;11.560;2022-12-05T13:56:05;3.50;84.90
13458;DHT22;6801;53.018;11.560;2022-12-05T13:58:41;3.60;85.00
13458;DHT22;6801;53.018;11.560;2022-12-05T14:01:47;3.60;84.90
13458;DHT22;6801;53.018;11.560;2022-12-05T14:07:07;3.50;84.90
13458;DHT22;6801;53.018;11.560;2022-12-05T14:09:49;3.60;84.90
13458;DHT22;6801;53.018;11.560;2022-12-05T14:15:33;3.60;84.80
13458;DHT22;6801;53.018;11.560;2022-12-05T14:18:14;3.60;84.70
13458;DHT22;6801;53.018;11.560;2022-12-05T14:21:00;3.60;84.60
13458;DHT22;6801;53.018;11.560;2022-12-05T14:23:56;3.60;84.60
13458;DHT22;6801;53.018;11.560;2022-12-05T14:26:43;3.60;84.60
13458;DHT22;6801;53.018;11.560;2022-12-05T14:29:36;3.60;84.60
13458;DHT22;6801;53.018;11.560;2022-12-05T14:32:18;3.60;84.60
13458;DHT22;6801;53.018;11.560;2022-12-05T14:34:53;3.60;84.60
13458;DHT22;6801;53.018;11.560;2022-12-05T14:37:26;3.60;84.50
13458;DHT22;6801;53.018;11.560;2022-12-05T14:39:55;3.60;84.50
13458;DHT22;6801;53.018;11.560;2022-12-05T14:42:29;3.60;84.60
13458;DHT22;6801;53.018;11.560;2022-12-05T14:45:01;3.50;84.60
13458;DHT22;6801;53.018;11.560;2022-12-05T14:47:31;3.50;84.60
13458;DHT22;6801;53.018;11.560;2022-12-05T14:50:21;3.50;84.70
13458;DHT22;6801;53.018;11.560;2022-12-05T14:56:02;3.50;84.60
13458;DHT22;6801;53.018;11.560;2022-12-05T14:58:34;3.50;84.50
13458;DHT22;6801;53.018;11.560;2022-12-05T15:01:06;3.60;84.50
13458;DHT22;6801;53.018;11.560;2022-12-05T15:03:36;3.60;84.50
13458;DHT22;6801;53.018;11.560;2022-12-05T15:06:09;3.60;84.50
13458;DHT22;6801;53.018;11.560;2022-12-05T15:08:44;3.50;84.50
13458;DHT22;6801;53.018;11.560;2022-12-05T15:11:15;3.50;84.50
13458;DHT22;6801;53.018;11.560;2022-12-05T15:13:55;3.50;84.50
13458;DHT22;6801;53.018;11.560;2022-12-05T15:16:25;3.50;84.50
13458;DHT22;6801;53.018;11.560;2022-12-05T15:18:55;3.50;84.40
13458;DHT22;6801;53.018;11.560;2022-12-05T15:21:29;3.50;84.40
13458;DHT22;6801;53.018;11.560;2022-12-05T15:24:00;3.60;84.30
13458;DHT22;6801;53.018;11.560;2022-12-05T15:26:29;3.50;84.30
13458;DHT22;6801;53.018;11.560;2022-12-05T15:29:03;3.50;84.30
13458;DHT22;6801;53.018;11.560;2022-12-05T15:31:34;3.50;84.40
13458;DHT22;6801;53.018;11.560;2022-12-05T15:34:03;3.50;84.40
13458;DHT22;6801;53.018;11.560;2022-12-05T15:36:34;3.50;84.40
13458;DHT22;6801;53.018;11.560;2022-12-05T15:39:15;3.50;84.30
13458;DHT22;6801;53.018;11.560;2022-12-05T15:41:48;3.50;84.30
13458;DHT22;6801;53.018;11.560;2022-12-05T15:44:17;3.50;84.30
13458;DHT22;6801;53.018;11.560;2022-12-05T15:46:50;3.50;84.40
13458;DHT22;6801;53.018;11.560;2022-12-05T15:49:22;3.50;84.40
13458;DHT22;6801;53.018;11.560;2022-12-05T15:51:52;3.50;84.40
13458;DHT22;6801;53.018;11.560;2022-12-05T15:54:24;3.40;84.40
13458;DHT22;6801;53.018;11.560;2022-12-05T15:56:57;3.50;84.40
13458;DHT22;6801;53.018;11.560;2022-12-05T15:59:30;3.50;84.40
13458;DHT22;6801;53.018;11.560;2022-12-05T16:02:03;3.40;84.40
13458;DHT22;6801;53.018;11.560;2022-12-05T16:04:37;3.50;84.40
13458;DHT22;6801;53.018;11.560;2022-12-05T16:07:07;3.40;84.40
13458;DHT22;6801;53.018;11.560;2022-12-05T16:09:39;3.50;84.40
13458;DHT22;6801;53.018;11.560;2022-12-05T16:12:19;3.50;84.40
13458;DHT22;6801;53.018;11.560;2022-12-05T16:14:50;3.40;84.30
13458;DHT22;6801;53.018;11.560;2022-12-05T16:17:20;3.50;84.30
13458;DHT22;6801;53.018;11.560;2022-12-05T16:19:47;3.40;84.30
13458;DHT22;6801;53.018;11.560;2022-12-05T16:22:21;3.50;84.30
13458;DHT22;6801;53.018;11.560;2022-12-05T16:24:54;3.40;84.30
13458;DHT22;6801;53.018;11.560;2022-12-05T16:27:25;3.40;84.30
13458;DHT22;6801;53.018;11.560;2022-12-05T16:30:07;3.40;84.30
13458;DHT22;6801;53.018;11.560;2022-12-05T16:32:37;3.40;84.30
13458;DHT22;6801;53.018;11.560;2022-12-05T16:35:27;3.40;84.30
13458;DHT22;6801;53.018;11.560;2022-12-05T16:38:05;3.40;84.30